createdAt,value
2019-02-12T00:00:54.019Z,9.70
2019-02-12T00:03:23.390Z,9.77
2019-02-12T00:05:52.799Z,8.80
2019-02-12T00:08:22.152Z,7.13
2019-02-12T00:10:51.519Z,10.17
2019-02-12T00:13:20.895Z,6.20
2019-02-12T00:15:50.263Z,8.58
2019-02-12T00:18:19.792Z,13.93
2019-02-12T00:20:49.178Z,12.57
2019-02-12T00:23:18.538Z,10.50
2019-02-12T00:25:47.897Z,9.33
2019-02-12T00:28:17.710Z,10.90
2019-02-12T00:30:47.063Z,11.18
2019-02-12T00:33:16.422Z,11.27
2019-02-12T00:35:45.815Z,18.03
2019-02-12T00:38:15.171Z,13.83
2019-02-12T00:40:44.537Z,13.20
2019-02-12T00:43:13.922Z,10.63
2019-02-12T00:45:43.284Z,11.97
2019-02-12T00:48:12.642Z,12.77
2019-02-12T00:50:42.666Z,13.47
2019-02-12T00:53:12.022Z,11.73
2019-02-12T00:55:41.406Z,14.43
2019-02-12T00:58:10.789Z,17.17
2019-02-12T01:00:41.214Z,8.60
2019-02-12T01:03:10.581Z,13.50
2019-02-12T01:05:39.961Z,13.20
2019-02-12T01:08:09.379Z,13.03
2019-02-12T01:10:38.743Z,20.53
2019-02-12T01:13:08.676Z,10.97
2019-02-12T01:15:38.113Z,14.17
2019-02-12T01:18:07.470Z,9.60
2019-02-12T01:20:36.862Z,14.83
2019-02-12T01:23:06.285Z,10.97
2019-02-12T01:25:35.667Z,13.80
2019-02-12T01:28:05.031Z,15.33
2019-02-12T01:30:34.397Z,12.17
2019-02-12T01:33:03.849Z,11.40
2019-02-12T01:35:33.725Z,15.40
2019-02-12T01:38:03.111Z,11.83
2019-02-12T01:40:32.491Z,13.10
2019-02-12T01:43:01.860Z,15.10
2019-02-12T01:45:31.237Z,10.53
2019-02-12T01:48:00.619Z,11.70
2019-02-12T01:50:30.011Z,17.20
2019-02-12T01:52:59.366Z,19.40
2019-02-12T02:14:17.331Z,11.77
2019-02-12T02:16:46.674Z,14.17
2019-02-12T02:19:16.024Z,15.57
2019-02-12T02:21:45.402Z,14.73
2019-02-12T02:24:14.737Z,9.90
2019-02-12T02:26:44.102Z,19.43
2019-02-12T02:29:13.496Z,13.00
2019-02-12T02:31:42.858Z,19.97
2019-02-12T02:34:12.207Z,13.17
2019-02-12T02:36:41.628Z,13.93
2019-02-12T02:39:10.997Z,21.03
2019-02-12T02:41:40.373Z,13.28
2019-02-12T02:44:09.772Z,17.80
2019-02-12T02:46:39.123Z,14.90
2019-02-12T02:49:08.467Z,16.70
2019-02-12T02:51:37.883Z,21.60
2019-02-12T02:54:07.235Z,15.40
2019-02-12T02:56:36.642Z,16.13
2019-02-12T02:59:06.407Z,15.87
2019-02-12T03:01:35.786Z,19.13
2019-02-12T03:04:05.140Z,15.03
2019-02-12T03:06:34.511Z,16.10
2019-02-12T03:09:06.308Z,20.73
2019-02-12T03:11:35.664Z,16.83
2019-02-12T03:14:05.096Z,12.80
2019-02-12T03:16:34.696Z,14.87
2019-02-12T03:19:04.070Z,17.30
2019-02-12T03:21:33.462Z,14.00
2019-02-12T03:24:02.824Z,17.50
2019-02-12T03:26:32.183Z,18.20
2019-02-12T03:29:01.673Z,21.63
2019-02-12T03:31:31.010Z,17.10
2019-02-12T03:34:00.388Z,24.87
2019-02-12T03:36:29.816Z,15.17
2019-02-12T03:38:59.179Z,18.50
2019-02-12T03:41:28.545Z,17.77
2019-02-12T03:43:58.225Z,11.47
2019-02-12T03:46:27.591Z,19.77
2019-02-12T03:48:56.979Z,17.70
2019-02-12T03:51:26.437Z,10.87
2019-02-12T03:53:55.806Z,14.50
2019-02-12T03:56:25.175Z,14.13
2019-02-12T03:58:54.556Z,20.53
2019-02-12T04:01:23.902Z,20.73
2019-02-12T04:03:53.594Z,19.30
2019-02-12T04:06:23.349Z,14.67
2019-02-12T04:08:52.703Z,21.77
2019-02-12T04:11:24.288Z,16.10
2019-02-12T04:13:53.179Z,15.93
2019-02-12T04:16:22.570Z,15.60
2019-02-12T04:18:53.036Z,17.63
2019-02-12T04:21:22.410Z,22.07
2019-02-12T04:23:51.774Z,18.97
2019-02-12T04:26:21.124Z,17.77
2019-02-12T04:28:50.521Z,13.83
2019-02-12T04:31:19.873Z,20.97
2019-02-12T04:33:49.224Z,13.13
2019-02-12T04:36:18.615Z,13.60
2019-02-12T04:38:47.976Z,17.00
2019-02-12T04:41:17.348Z,15.10
2019-02-12T04:43:46.740Z,21.90
2019-02-12T04:46:16.103Z,18.07
2019-02-12T04:48:45.452Z,23.37
2019-02-12T04:51:15.336Z,19.97
2019-02-12T04:53:44.696Z,17.47
2019-02-12T04:56:14.092Z,22.70
2019-02-12T04:58:43.451Z,23.93
2019-02-12T05:01:12.817Z,25.00
2019-02-12T05:03:42.168Z,21.13
2019-02-12T05:06:11.543Z,17.20
2019-02-12T05:09:13.527Z,15.57
2019-02-12T05:11:48.089Z,13.70
2019-02-12T05:14:17.463Z,16.13
2019-02-12T05:16:46.834Z,15.30
2019-02-12T05:19:16.769Z,17.73
2019-02-12T05:21:46.147Z,16.27
2019-02-12T05:24:15.532Z,14.47
2019-02-12T05:26:44.922Z,15.63
2019-02-12T05:29:14.278Z,18.03
2019-02-12T05:31:43.723Z,16.13
2019-02-12T05:34:13.150Z,15.57
2019-02-12T05:36:42.527Z,23.50
2019-02-12T05:39:11.910Z,18.33
2019-02-12T05:41:41.322Z,17.83
2019-02-12T05:44:30.032Z,15.80
2019-02-12T05:46:59.396Z,16.93
2019-02-12T05:49:28.786Z,16.70
2019-02-12T05:51:58.205Z,18.57
2019-02-12T05:54:27.566Z,18.03
2019-02-12T05:56:56.930Z,16.20
2019-02-12T05:59:26.371Z,17.60
2019-02-12T06:01:55.748Z,22.73
2019-02-12T06:04:25.099Z,19.43
2019-02-12T06:06:54.486Z,17.67
2019-02-12T06:09:23.863Z,18.77
2019-02-12T06:11:53.227Z,26.90
2019-02-12T06:14:22.603Z,14.20
2019-02-12T06:16:52.034Z,17.97
2019-02-12T06:19:21.379Z,21.93
2019-02-12T06:21:51.879Z,21.70
2019-02-12T06:24:21.255Z,20.60
2019-02-12T06:26:50.633Z,19.90
2019-02-12T06:29:19.993Z,20.07
2019-02-12T06:31:49.383Z,19.67
2019-02-12T06:34:18.753Z,19.67
2019-02-12T06:36:48.113Z,17.97
2019-02-12T06:39:17.503Z,19.57
2019-02-12T06:41:46.867Z,15.83
2019-02-12T06:44:16.223Z,18.10
2019-02-12T06:46:45.584Z,20.60
2019-02-12T06:49:14.925Z,17.40
2019-02-12T06:51:44.297Z,21.15
2019-02-12T06:54:13.731Z,29.30
2019-02-12T06:56:43.088Z,20.87
2019-02-12T06:59:12.463Z,21.43
2019-02-12T07:01:41.846Z,22.43
2019-02-12T07:04:11.289Z,19.00
2019-02-12T07:06:51.050Z,19.63
2019-02-12T07:09:25.009Z,31.47
2019-02-12T07:11:59.010Z,22.13
2019-02-12T07:14:32.974Z,27.50
2019-02-12T07:17:13.040Z,26.37
2019-02-12T07:19:49.631Z,25.70
2019-02-12T07:22:26.414Z,26.43
2019-02-12T07:25:00.913Z,28.23
2019-02-12T07:27:37.651Z,24.37
2019-02-12T07:30:11.787Z,28.87
2019-02-12T07:32:44.677Z,32.23
2019-02-12T07:35:18.680Z,24.27
2019-02-12T07:38:01.615Z,24.30
2019-02-12T07:40:38.352Z,21.60
2019-02-12T07:43:24.158Z,29.07
2019-02-12T07:46:00.773Z,33.30
2019-02-12T07:48:53.206Z,34.97
2019-02-12T07:51:27.173Z,26.43
2019-02-12T07:54:01.157Z,28.10
2019-02-12T07:56:35.261Z,33.65
2019-02-12T07:59:09.243Z,34.17
2019-02-12T08:01:52.059Z,35.57
2019-02-12T08:04:32.508Z,28.50
2019-02-12T08:07:09.263Z,28.97
2019-02-12T08:09:45.909Z,24.27
2019-02-12T08:12:19.896Z,26.20
2019-02-12T08:14:53.914Z,29.47
2019-02-12T08:17:30.578Z,23.43
2019-02-12T08:20:12.707Z,25.73
2019-02-12T08:22:46.705Z,27.10
2019-02-12T08:25:23.405Z,28.57
2019-02-12T08:27:58.446Z,32.73
2019-02-12T08:30:35.532Z,29.20
2019-02-12T08:33:12.480Z,23.73
2019-02-12T08:35:57.057Z,25.13
2019-02-12T08:38:30.514Z,23.30
2019-02-12T08:41:07.043Z,26.75
2019-02-12T08:43:58.448Z,29.07
2019-02-12T08:46:30.570Z,27.77
2019-02-12T08:49:07.043Z,24.30
2019-02-12T08:51:44.267Z,27.83
2019-02-12T08:54:18.318Z,29.63
2019-02-12T08:56:58.260Z,30.77
2019-02-12T08:59:32.247Z,23.73
2019-02-12T09:02:07.499Z,35.17
2019-02-12T09:04:53.438Z,22.50
2019-02-12T09:07:52.998Z,26.70
2019-02-12T09:10:29.526Z,22.83
2019-02-12T09:13:03.522Z,25.30
2019-02-12T09:15:40.495Z,27.90
2019-02-12T09:18:14.498Z,22.53
2019-02-12T09:20:51.275Z,27.53
2019-02-12T09:23:25.663Z,25.33
2019-02-12T09:25:59.642Z,28.27
2019-02-12T09:28:33.659Z,23.90
2019-02-12T09:31:08.836Z,23.93
2019-02-12T09:33:42.832Z,31.47
2019-02-12T09:36:22.196Z,28.17
2019-02-12T09:38:56.246Z,27.43
2019-02-12T09:41:30.215Z,26.53
2019-02-12T09:44:00.485Z,28.37
2019-02-12T09:46:37.206Z,24.57
2019-02-12T09:49:11.227Z,31.07
2019-02-12T09:51:47.796Z,32.60
2019-02-12T09:54:25.124Z,25.40
2019-02-12T09:56:59.140Z,29.63
2019-02-12T09:59:35.877Z,26.80
2019-02-12T10:02:15.588Z,31.80
2019-02-12T10:04:49.568Z,24.43
2019-02-12T10:07:32.527Z,27.57
2019-02-12T10:10:12.774Z,32.23
2019-02-12T10:12:46.734Z,34.70
2019-02-12T10:15:23.646Z,25.50
2019-02-12T10:18:00.081Z,23.10
2019-02-12T10:20:34.082Z,27.47
2019-02-12T10:23:10.621Z,37.17
2019-02-12T10:25:40.083Z,31.77
2019-02-12T10:28:26.929Z,30.33
2019-02-12T10:31:00.902Z,27.07
2019-02-12T10:33:30.889Z,27.13
2019-02-12T10:36:00.293Z,37.00
2019-02-12T10:38:29.646Z,54.60
2019-02-12T10:40:59.058Z,26.37
2019-02-12T10:43:28.488Z,33.00
2019-02-12T10:45:57.840Z,31.03
2019-02-12T10:48:27.266Z,41.33
2019-02-12T10:50:56.691Z,33.37
2019-02-12T10:53:26.049Z,31.63
2019-02-12T10:55:55.503Z,31.82
2019-02-12T10:58:24.854Z,25.30
2019-02-12T11:00:54.306Z,34.43
2019-02-12T11:03:23.685Z,28.10
2019-02-12T11:05:53.708Z,33.60
2019-02-12T11:08:23.089Z,27.40
2019-02-12T11:10:52.472Z,29.47
2019-02-12T11:13:21.917Z,31.70
2019-02-12T11:15:51.285Z,28.83
2019-02-12T11:18:20.719Z,43.73
2019-02-12T11:20:50.115Z,33.43
2019-02-12T11:23:19.522Z,34.07
2019-02-12T11:25:48.887Z,41.30
2019-02-12T11:28:18.734Z,29.30
2019-02-12T11:30:48.086Z,45.27
2019-02-12T11:33:17.456Z,33.83
2019-02-12T11:35:47.995Z,33.23
2019-02-12T11:38:17.340Z,39.13
2019-02-12T11:40:46.698Z,29.60
2019-02-12T11:43:16.075Z,41.00
2019-02-12T11:45:45.436Z,35.33
2019-02-12T11:48:14.783Z,36.13
2019-02-12T11:50:44.829Z,33.27
2019-02-12T11:53:14.200Z,34.67
2019-02-12T11:55:43.571Z,33.70
2019-02-12T11:58:12.944Z,39.30
2019-02-12T12:00:43.956Z,35.40
2019-02-12T12:03:13.326Z,32.40
2019-02-12T12:05:42.713Z,33.40
2019-02-12T12:08:12.056Z,38.43
2019-02-12T12:10:41.430Z,30.17
2019-02-12T12:13:11.231Z,34.47
2019-02-12T12:15:40.605Z,33.85
2019-02-12T12:18:09.960Z,42.20
2019-02-12T12:20:39.331Z,27.27
2019-02-12T12:23:08.677Z,35.40
2019-02-12T12:25:38.035Z,37.00
2019-02-12T12:28:07.396Z,47.20
2019-02-12T12:30:36.762Z,51.97
2019-02-12T12:33:06.111Z,31.50
2019-02-12T12:35:35.868Z,32.50
2019-02-12T12:38:05.788Z,31.67
2019-02-12T12:40:35.140Z,32.37
2019-02-12T12:43:04.571Z,28.90
2019-02-12T12:45:33.996Z,32.20
2019-02-12T12:48:03.381Z,29.33
2019-02-12T12:50:32.755Z,27.03
2019-02-12T12:53:02.113Z,29.63
2019-02-12T12:55:31.502Z,31.87
2019-02-12T12:58:02.518Z,29.47
2019-02-12T13:00:31.889Z,26.87
2019-02-12T13:03:01.258Z,30.13
2019-02-12T13:05:30.610Z,23.40
2019-02-12T13:07:59.959Z,32.30
2019-02-12T13:10:29.319Z,29.40
2019-02-12T13:12:58.699Z,25.43
2019-02-12T13:15:28.099Z,25.70
2019-02-12T13:17:57.441Z,24.93
2019-02-12T13:20:27.539Z,64.93
2019-02-12T13:22:59.715Z,21.27
2019-02-12T13:25:29.071Z,28.93
2019-02-12T13:27:58.447Z,19.37
2019-02-12T13:30:27.786Z,30.67
2019-02-12T13:32:57.147Z,45.57
2019-02-12T13:35:26.528Z,24.92
2019-02-12T13:37:55.873Z,30.60
2019-02-12T13:40:27.325Z,28.67
2019-02-12T13:42:56.703Z,28.90
2019-02-12T13:45:26.123Z,41.73
2019-02-12T13:47:55.482Z,38.20
2019-02-12T13:50:24.836Z,34.53
2019-02-12T13:52:54.205Z,27.80
2019-02-12T13:55:23.544Z,32.07
2019-02-12T13:57:52.917Z,28.07
2019-02-12T14:00:22.266Z,30.23
2019-02-12T14:02:51.623Z,30.90
2019-02-12T14:05:23.924Z,27.20
2019-02-12T14:07:53.280Z,30.00
2019-02-12T14:10:22.623Z,33.67
2019-02-12T14:12:51.992Z,35.03
2019-02-12T14:15:21.351Z,37.07
2019-02-12T14:17:50.711Z,33.17
2019-02-12T14:20:20.076Z,38.77
2019-02-12T14:22:49.423Z,29.00
2019-02-12T14:25:25.276Z,30.60
2019-02-12T14:27:49.909Z,37.80
2019-02-12T14:30:22.438Z,30.03
2019-02-12T14:32:51.966Z,31.57
2019-02-12T14:35:21.341Z,27.70
2019-02-12T14:37:50.697Z,26.67
2019-02-12T14:40:20.047Z,26.70
2019-02-12T14:42:49.989Z,25.57
2019-02-12T14:45:20.350Z,28.75
2019-02-12T14:47:49.735Z,25.50
2019-02-12T14:50:20.855Z,25.40
2019-02-12T14:52:50.285Z,19.17
2019-02-12T14:55:19.662Z,20.13
2019-02-12T14:57:49.042Z,23.47
2019-02-12T15:00:20.213Z,18.90
2019-02-12T15:02:49.615Z,29.73
2019-02-12T15:05:18.973Z,20.97
2019-02-12T15:07:48.329Z,28.83
2019-02-12T15:10:17.676Z,20.53
2019-02-12T15:12:47.514Z,19.57
2019-02-12T15:15:16.875Z,21.63
2019-02-12T15:17:46.204Z,19.53
2019-02-12T15:20:15.573Z,18.57
2019-02-12T15:22:44.919Z,24.93
2019-02-12T15:25:14.342Z,25.37
2019-02-12T15:27:43.733Z,31.13
2019-02-12T15:30:15.808Z,29.03
2019-02-12T15:32:45.179Z,22.67
2019-02-12T15:35:14.638Z,20.30
2019-02-12T15:37:43.988Z,27.00
2019-02-12T15:40:16.348Z,19.33
2019-02-12T15:42:45.727Z,22.80
2019-02-12T15:45:19.544Z,31.03
2019-02-12T15:47:48.907Z,21.50
2019-02-12T15:50:18.351Z,34.57
2019-02-12T15:52:47.700Z,18.90
2019-02-12T15:55:17.068Z,22.13
2019-02-12T15:57:46.501Z,19.73
2019-02-12T16:00:20.857Z,16.30
2019-02-12T16:02:50.487Z,17.37
2019-02-12T16:05:20.592Z,14.00
2019-02-12T16:07:49.935Z,45.17
2019-02-12T16:10:21.264Z,21.67
2019-02-12T16:12:51.564Z,25.47
2019-02-12T16:15:24.671Z,22.33
2019-02-12T16:17:53.668Z,18.07
2019-02-12T16:20:23.676Z,10.63
2019-02-12T16:22:53.139Z,14.97
2019-02-12T16:25:22.482Z,15.50
2019-02-12T16:27:51.860Z,18.23
2019-02-12T16:30:22.357Z,18.47
2019-02-12T16:32:51.718Z,12.80
2019-02-12T16:35:21.107Z,14.57
2019-02-12T16:37:50.453Z,12.00
2019-02-12T16:40:19.812Z,17.00
2019-02-12T16:42:49.202Z,14.07
2019-02-12T16:45:25.890Z,19.77
2019-02-12T16:47:55.966Z,15.63
2019-02-12T16:50:25.327Z,11.47
2019-02-12T16:52:56.201Z,13.63
2019-02-12T16:55:25.650Z,9.03
2019-02-12T16:57:55.003Z,12.43
2019-02-12T17:00:24.371Z,10.73
2019-02-12T17:02:53.859Z,13.90
2019-02-12T17:05:23.215Z,13.00
2019-02-12T17:07:52.580Z,11.87
2019-02-12T17:10:21.962Z,11.40
2019-02-12T17:12:51.378Z,12.30
2019-02-12T17:15:20.726Z,11.97
2019-02-12T17:17:50.100Z,9.77
2019-02-12T17:20:22.173Z,11.90
2019-02-12T17:22:51.586Z,13.03
2019-02-12T17:25:21.301Z,11.93
2019-02-12T17:27:50.799Z,10.73
2019-02-12T17:30:20.191Z,14.60
2019-02-12T17:32:49.554Z,14.00
2019-02-12T17:35:18.945Z,11.73
2019-02-12T17:37:48.444Z,15.47
2019-02-12T17:40:20.280Z,17.57
2019-02-12T17:42:49.632Z,18.27
2019-02-12T17:45:19.917Z,21.53
2019-02-12T17:47:50.129Z,22.73
2019-02-12T17:50:19.724Z,23.97
2019-02-12T17:52:49.221Z,18.00
2019-02-12T17:55:20.145Z,10.82
2019-02-12T17:57:49.493Z,13.20
2019-02-12T18:00:21.747Z,19.63
2019-02-12T18:02:51.634Z,23.17
2019-02-12T18:05:21.258Z,19.30
2019-02-12T18:07:52.325Z,10.67
2019-02-12T18:10:21.830Z,19.03
2019-02-12T18:12:51.186Z,9.17
2019-02-12T18:15:20.745Z,9.50
2019-02-12T18:17:50.120Z,10.20
2019-02-12T18:20:26.381Z,9.43
2019-02-12T18:22:50.574Z,13.00
2019-02-12T18:25:20.013Z,15.80
2019-02-12T18:27:49.413Z,10.60
2019-02-12T18:30:19.481Z,8.73
2019-02-12T18:32:48.875Z,12.70
2019-02-12T18:35:18.279Z,23.40
2019-02-12T18:37:47.693Z,27.70
2019-02-12T18:40:18.540Z,28.23
2019-02-12T18:42:47.906Z,23.23
2019-02-12T18:45:21.764Z,27.33
2019-02-12T18:47:51.184Z,23.97
2019-02-12T18:50:20.617Z,23.40
2019-02-12T18:52:50.479Z,23.97
2019-02-12T18:55:19.873Z,24.90
2019-02-12T18:57:49.225Z,25.37
2019-02-12T19:00:21.373Z,25.80
2019-02-12T19:02:50.751Z,23.53
2019-02-12T19:05:20.104Z,29.30
2019-02-12T19:07:49.476Z,33.70
2019-02-12T19:10:19.374Z,33.00
2019-02-12T19:12:48.744Z,33.63
2019-02-12T19:15:20.225Z,36.37
2019-02-12T19:18:03.469Z,33.37
2019-02-12T19:20:32.906Z,31.50
2019-02-12T19:23:02.272Z,26.67
2019-02-12T19:25:31.732Z,30.23
2019-02-12T19:28:01.283Z,28.30
2019-02-12T19:30:30.656Z,28.73
2019-02-12T19:33:01.757Z,28.67
2019-02-12T19:35:31.180Z,25.83
2019-02-12T19:38:00.606Z,26.03
2019-02-12T19:40:30.096Z,24.93
2019-02-12T19:42:59.844Z,28.97
2019-02-12T19:45:29.230Z,32.63
2019-02-12T19:47:58.946Z,23.07
2019-02-12T19:50:28.603Z,27.67
2019-02-12T19:52:57.977Z,28.50
2019-02-12T19:55:27.680Z,30.37
2019-02-12T19:57:57.050Z,29.07
2019-02-12T20:00:26.752Z,30.60
2019-02-12T20:02:56.159Z,24.30
2019-02-12T20:05:25.782Z,29.80
2019-02-12T20:07:55.199Z,25.00
2019-02-12T20:10:25.238Z,27.40
2019-02-12T20:12:54.663Z,23.97
2019-02-12T20:15:24.112Z,28.37
2019-02-12T20:17:53.482Z,29.73
2019-02-12T20:20:22.845Z,25.13
2019-02-12T20:22:52.238Z,36.93
2019-02-12T20:25:21.684Z,31.40
2019-02-12T20:27:51.076Z,21.70
2019-02-12T20:30:20.712Z,29.47
2019-02-12T20:32:50.833Z,33.07
2019-02-12T20:35:22.405Z,31.10
2019-02-12T20:37:52.029Z,26.33
2019-02-12T20:40:21.507Z,31.07
2019-02-12T20:42:50.888Z,21.27
2019-02-12T20:45:20.586Z,27.57
2019-02-12T20:47:50.058Z,23.73
2019-02-12T20:50:21.340Z,21.13
2019-02-12T20:52:50.748Z,29.33
2019-02-12T20:55:20.154Z,29.60
2019-02-12T20:57:49.814Z,31.00
2019-02-12T21:00:21.909Z,24.30
2019-02-12T21:02:51.288Z,24.47
2019-02-12T21:05:20.656Z,26.63
2019-02-12T21:07:50.083Z,27.67
2019-02-12T21:10:22.745Z,23.50
2019-02-12T21:12:52.131Z,27.43
2019-02-12T21:15:24.588Z,24.63
2019-02-12T21:17:54.102Z,24.83
2019-02-12T21:20:23.468Z,25.77
2019-02-12T21:22:52.936Z,29.73
2019-02-12T21:25:22.354Z,22.27
2019-02-12T21:27:51.720Z,33.23
2019-02-12T21:30:24.652Z,23.10
2019-02-12T21:32:54.060Z,23.37
2019-02-12T21:35:23.579Z,16.70
2019-02-12T21:37:52.978Z,25.30
2019-02-12T21:40:28.058Z,21.47
2019-02-12T21:42:57.470Z,17.50
2019-02-12T21:45:26.930Z,24.80
2019-02-12T21:47:56.927Z,20.83
2019-02-12T21:50:26.291Z,25.23
2019-02-12T21:52:55.665Z,16.80
2019-02-12T21:55:25.051Z,16.70
2019-02-12T21:57:54.548Z,15.27
2019-02-12T22:00:25.188Z,19.00
2019-02-12T22:02:54.701Z,19.13
2019-02-12T22:05:24.120Z,21.10
2019-02-12T22:07:53.514Z,16.93
2019-02-12T22:10:31.031Z,14.60
2019-02-12T22:13:00.395Z,19.63
2019-02-12T22:15:29.927Z,21.30
2019-02-12T22:17:59.330Z,18.17
2019-02-12T22:20:28.714Z,19.23
2019-02-12T22:22:58.072Z,19.10
2019-02-12T22:25:27.497Z,15.83
2019-02-12T22:27:56.865Z,17.47
2019-02-12T22:30:26.909Z,16.27
2019-02-12T22:32:56.783Z,15.27
2019-02-12T22:35:26.150Z,15.40
2019-02-12T22:37:55.512Z,14.43
2019-02-12T22:40:24.927Z,16.27
2019-02-12T22:42:54.292Z,22.90
2019-02-12T22:45:25.766Z,18.33
2019-02-12T22:47:55.176Z,26.83
2019-02-12T22:50:24.562Z,27.97
2019-02-12T22:52:53.922Z,21.97
2019-02-12T22:55:23.715Z,29.30
2019-02-12T22:57:53.100Z,26.83
2019-02-12T23:00:39.238Z,38.30
2019-02-12T23:03:09.470Z,33.07
2019-02-12T23:05:38.828Z,31.50
2019-02-12T23:08:08.219Z,32.77
2019-02-12T23:10:37.564Z,21.35
2019-02-12T23:13:06.950Z,30.37
2019-02-12T23:15:36.766Z,32.97
2019-02-12T23:18:06.127Z,29.70
2019-02-12T23:20:35.485Z,23.73
2019-02-12T23:23:04.886Z,24.93
2019-02-12T23:25:34.253Z,18.00
2019-02-12T23:28:03.619Z,23.83
2019-02-12T23:30:33.030Z,14.60
2019-02-12T23:33:02.379Z,23.87
2019-02-12T23:35:31.822Z,24.83
2019-02-12T23:38:01.236Z,20.83
2019-02-12T23:40:30.611Z,12.78
2019-02-12T23:42:59.965Z,21.93
2019-02-12T23:45:29.349Z,26.77
2019-02-12T23:47:58.715Z,19.87
2019-02-12T23:50:28.081Z,19.43
2019-02-12T23:52:57.472Z,17.90
2019-02-12T23:55:26.865Z,24.27
2019-02-12T23:57:56.227Z,21.57
